Time;durP1;ratioP1;P1;durP2;ratioP2;P2;SDS_P1;SDS_P2;PMS_P1;PMS_P2;Temp;Humidity;BMP_temperature;BMP_pressure;BME280_temperature;BME280_humidity;BME280_pressure;Samples;Min_cycle;Max_cycle;Signal;HPM_P1;HPM_P2
2023/01/27 00:00:39;;;;;;;;;11.67;8.67;;;;;8.61;100.00;101924.41;5102868;27;45477;-79
2023/01/27 00:03:05;;;;;;;;;4.00;4.00;;;;;8.61;100.00;101919.97;5102587;27;45298;-79
2023/01/27 00:05:30;;;;;;;;;6.33;4.33;;;;;8.57;100.00;101911.47;5084329;27;46247;-79
2023/01/27 00:07:57;;;;;;;;;10.00;7.00;;;;;8.58;100.00;101914.94;5102038;27;45567;-79
2023/01/27 00:10:23;;;;;;;;;6.33;5.00;;;;;8.59;100.00;101914.78;5101151;27;45394;-79
2023/01/27 00:15:33;;;;;;;;;9.00;9.00;;;;;8.55;100.00;101917.84;5102587;27;45706;-80
2023/01/27 00:17:59;;;;;;;;;8.33;8.00;;;;;8.55;100.00;101917.84;5102402;27;45169;-79
2023/01/27 00:26:06;;;;;;;;;9.00;8.00;;;;;8.61;100.00;101925.25;5101823;27;45378;-79
2023/01/27 00:28:33;;;;;;;;;7.33;6.33;;;;;8.56;100.00;101916.88;5102039;27;45375;-79
2023/01/27 00:30:58;;;;;;;;;4.67;4.67;;;;;8.53;100.00;101917.13;5083856;27;45804;-79
2023/01/27 00:33:28;;;;;;;;;6.33;5.00;;;;;8.50;100.00;101923.50;5102197;27;45407;-79
2023/01/27 00:36:01;;;;;;;;;7.33;4.67;;;;;8.49;100.00;101916.53;5102102;27;45352;-79
2023/01/27 00:38:28;;;;;;;;;4.33;3.00;;;;;8.53;100.00;101917.13;5102119;27;45417;-79
2023/01/27 00:43:37;;;;;;;;;7.67;5.00;;;;;8.57;100.00;101913.25;5101649;27;45353;-79
2023/01/27 00:46:03;;;;;;;;;3.33;3.00;;;;;8.53;100.00;101912.63;5101854;27;45218;-79
2023/01/27 00:48:28;;;;;;;;;7.00;4.33;;;;;8.52;100.00;101907.47;5101881;27;45227;-79
2023/01/27 00:50:53;;;;;;;;;4.00;3.00;;;;;8.54;100.00;101897.63;5083658;27;45429;-79
2023/01/27 00:53:19;;;;;;;;;3.33;3.33;;;;;8.52;100.00;101902.16;5101402;27;45481;-80
2023/01/27 00:55:46;;;;;;;;;4.33;3.67;;;;;8.54;100.00;101905.56;5083178;27;47551;-79
2023/01/27 00:58:11;;;;;;;;;5.33;5.33;;;;;8.57;100.00;101900.84;5083544;27;45452;-79
2023/01/27 01:00:37;;;;;;;;;6.33;6.33;;;;;8.54;100.00;101893.16;5083421;27;45470;-79
2023/01/27 01:03:02;;;;;;;;;5.00;5.00;;;;;8.53;100.00;101896.75;5101819;27;45238;-79
2023/01/27 01:05:27;;;;;;;;;7.33;4.33;;;;;8.53;100.00;101890.63;5083503;27;47539;-79
2023/01/27 01:07:53;;;;;;;;;5.00;5.00;;;;;8.61;100.00;101903.22;5101420;27;45482;-79
2023/01/27 01:10:18;;;;;;;;;6.33;5.00;;;;;8.66;100.00;101901.88;5101484;27;45769;-79
2023/01/27 01:12:44;;;;;;;;;4.00;4.00;;;;;8.65;100.00;101897.53;5101371;27;45431;-80
2023/01/27 01:15:10;;;;;;;;;5.00;4.67;;;;;8.66;100.00;101901.03;5101872;27;46265;-79
2023/01/27 01:17:35;;;;;;;;;4.00;4.00;;;;;8.66;100.00;101893.91;5101379;27;45328;-80
2023/01/27 01:20:00;;;;;;;;;3.33;3.33;;;;;8.71;100.00;101904.13;5101767;27;45440;-79
2023/01/27 01:22:26;;;;;;;;;4.67;4.00;;;;;8.68;100.00;101894.59;5101258;27;45524;-79
2023/01/27 01:24:51;;;;;;;;;4.00;2.67;;;;;8.66;100.00;101893.91;5101437;27;45340;-79
2023/01/27 01:27:16;;;;;;;;;1.67;1.67;;;;;8.68;100.00;101897.25;5101424;27;45383;-79
2023/01/27 01:29:42;;;;;;;;;4.67;4.00;;;;;8.74;100.00;101908.31;5082748;27;45456;-80
2023/01/27 01:32:10;;;;;;;;;5.00;5.00;;;;;8.80;100.00;101903.31;5101090;27;45353;-79
2023/01/27 01:34:36;;;;;;;;;4.00;4.00;;;;;8.78;100.00;101899.97;5101381;27;46001;-79
2023/01/27 01:37:02;;;;;;;;;4.67;4.00;;;;;8.80;100.00;101899.84;5101108;27;45434;-79
2023/01/27 01:39:28;;;;;;;;;5.67;3.00;;;;;8.82;100.00;101900.50;5101000;27;45392;-79
2023/01/27 01:41:53;;;;;;;;;3.00;3.00;;;;;8.80;100.00;101900.66;5101038;27;45344;-79
2023/01/27 01:44:23;;;;;;;;;4.00;3.67;;;;;8.81;100.00;101897.03;5101055;27;45424;-79
2023/01/27 01:46:48;;;;;;;;;4.00;1.67;;;;;8.76;100.00;101896.59;5101069;27;45293;-79
2023/01/27 01:49:18;;;;;;;;;3.00;3.00;;;;;8.80;100.00;101902.47;5101411;27;45258;-79
2023/01/27 01:51:53;;;;;;;;;3.67;3.00;;;;;8.76;100.00;101896.59;5082622;27;46122;-79
2023/01/27 01:54:42;;;;;;;;;4.67;4.67;;;;;8.80;100.00;101894.53;5100997;27;45603;-79
2023/01/27 01:57:14;;;;;;;;;0.00;0.00;;;;;8.76;100.00;101891.28;5100986;27;45316;-79
2023/01/27 01:59:49;;;;;;;;;4.00;3.00;;;;;8.86;100.00;101896.63;5100830;27;45640;-79
2023/01/27 02:02:19;;;;;;;;;4.00;4.00;;;;;8.84;100.00;101888.78;5100875;27;45320;-79
2023/01/27 02:04:53;;;;;;;;;5.00;5.00;;;;;8.88;100.00;101880.56;5099581;27;45354;-79
2023/01/27 02:07:26;;;;;;;;;8.00;6.33;;;;;8.75;100.00;101871.06;5082197;27;45384;-80
2023/01/27 02:09:55;;;;;;;;;4.67;4.67;;;;;8.98;100.00;101888.56;5082039;27;45370;-79
2023/01/27 02:12:20;;;;;;;;;3.00;3.00;;;;;8.93;100.00;101876.56;5100707;27;45296;-80
2023/01/27 02:14:45;;;;;;;;;0.00;0.00;;;;;8.91;100.00;101889.13;5100278;27;46152;-79
2023/01/27 02:17:12;;;;;;;;;3.67;3.00;;;;;8.86;100.00;101880.72;5100605;27;45321;-79
2023/01/27 02:19:59;;;;;;;;;4.00;3.33;;;;;8.88;100.00;101884.06;5082240;27;45466;-79
2023/01/27 02:22:38;;;;;;;;;8.67;5.00;;;;;8.86;100.00;101875.41;5100270;27;45503;-79
2023/01/27 02:25:23;;;;;;;;;6.33;6.33;;;;;8.88;100.00;101875.28;5100209;27;46129;-79
2023/01/27 02:27:48;;;;;;;;;4.00;3.00;;;;;8.90;100.00;101876.00;5081650;27;46351;-80
2023/01/27 02:30:13;;;;;;;;;6.00;6.00;;;;;8.89;100.00;101872.50;5100508;27;45324;-79
2023/01/27 02:32:39;;;;;;;;;4.00;4.00;;;;;9.06;100.00;101868.34;5100157;27;45223;-79
2023/01/27 02:35:07;;;;;;;;;5.00;4.00;;;;;9.16;100.00;101868.38;5100320;27;45215;-79
2023/01/27 02:37:34;;;;;;;;;4.67;4.33;;;;;9.14;100.00;101864.19;5100060;27;45434;-79
2023/01/27 02:40:01;;;;;;;;;8.33;5.00;;;;;9.14;100.00;101859.72;5100214;27;45299;-79
2023/01/27 02:42:27;;;;;;;;;6.33;4.00;;;;;9.15;100.00;101868.50;5081495;27;46237;-79
2023/01/27 02:44:52;;;;;;;;;4.00;3.00;;;;;9.02;100.00;101858.16;5081681;27;48469;-79
2023/01/27 02:47:17;;;;;;;;;4.00;4.00;;;;;9.19;100.00;101869.94;5098465;27;45257;-79
2023/01/27 02:49:43;;;;;;;;;7.33;5.33;;;;;9.41;100.00;101860.88;5100370;27;45157;-79
2023/01/27 02:52:08;;;;;;;;;6.33;5.67;;;;;9.16;100.00;101854.28;5099861;27;45501;-79
2023/01/27 02:54:33;;;;;;;;;3.33;3.33;;;;;9.19;100.00;101865.44;5099978;27;45363;-79
2023/01/27 02:56:59;;;;;;;;;5.67;4.00;;;;;9.13;100.00;101847.41;5099703;27;45354;-79
2023/01/27 02:59:24;;;;;;;;;3.33;3.33;;;;;9.41;100.00;101860.88;5081736;27;45278;-79
2023/01/27 03:01:49;;;;;;;;;4.00;4.00;;;;;9.11;100.00;101867.09;5081669;27;47132;-79
2023/01/27 03:04:15;;;;;;;;;3.67;3.67;;;;;9.06;100.00;101864.84;5098532;27;46211;-79
2023/01/27 03:06:41;;;;;;;;;5.33;5.33;;;;;9.05;100.00;101864.03;5099601;27;45343;-79
2023/01/27 03:09:06;;;;;;;;;4.33;4.33;;;;;9.03;100.00;101865.13;5100108;27;45234;-79
2023/01/27 03:14:15;;;;;;;;;5.00;4.33;;;;;8.93;100.00;101850.06;5099605;27;45746;-80
2023/01/27 03:19:27;;;;;;;;;9.00;4.00;;;;;8.96;100.00;101857.75;5099926;27;45245;-79
2023/01/27 03:21:53;;;;;;;;;4.33;3.33;;;;;9.08;100.00;101870.88;5099633;27;45505;-79
2023/01/27 03:24:19;;;;;;;;;6.00;6.00;;;;;9.07;100.00;101863.91;5080742;27;46850;-79
2023/01/27 03:26:44;;;;;;;;;6.00;5.00;;;;;9.07;100.00;101863.91;5099609;27;45332;-79
2023/01/27 03:31:53;;;;;;;;;3.50;3.50;;;;;8.92;100.00;101866.09;5099684;27;45334;-79
2023/01/27 03:34:19;;;;;;;;;4.33;4.33;;;;;8.93;100.00;101867.78;5099219;27;45381;-79
2023/01/27 03:47:41;;;;;;;;;3.00;3.00;;;;;8.90;100.00;101863.59;5099227;27;45343;-79
2023/01/27 03:50:10;;;;;;;;;4.33;2.00;;;;;8.93;100.00;101852.72;5099354;27;45342;-79
2023/01/27 03:52:36;;;;;;;;;4.00;4.00;;;;;8.96;100.00;101868.34;5099168;27;45455;-79
2023/01/27 03:55:03;;;;;;;;;4.00;4.00;;;;;8.95;100.00;101861.34;5080408;27;46123;-80
2023/01/27 03:57:28;;;;;;;;;5.33;4.00;;;;;9.00;100.00;101863.59;5099243;27;45339;-79
2023/01/27 03:59:53;;;;;;;;;3.67;3.67;;;;;8.96;100.00;101855.09;5098975;27;45402;-79
2023/01/27 04:07:46;;;;;;;;;5.33;4.00;;;;;8.82;100.00;101856.28;5098695;27;45391;-80
2023/01/27 04:10:12;;;;;;;;;4.00;2.67;;;;;8.91;100.00;101857.28;5080681;27;45436;-80
2023/01/27 04:12:37;;;;;;;;;4.00;2.00;;;;;8.92;100.00;101858.97;5098699;27;45517;-79
2023/01/27 04:15:03;;;;;;;;;3.33;3.00;;;;;8.92;100.00;101855.50;5098954;27;45263;-80
2023/01/27 04:17:36;;;;;;;;;3.00;3.00;;;;;8.90;100.00;101855.63;5080641;27;45247;-79
2023/01/27 04:20:02;;;;;;;;;2.00;2.00;;;;;8.98;100.00;101854.91;5099465;27;45326;-80
2023/01/27 04:22:28;;;;;;;;;3.00;2.00;;;;;9.03;100.00;101851.88;5098677;27;45397;-79
2023/01/27 04:24:53;;;;;;;;;1.00;1.00;;;;;8.75;100.00;101856.97;5098784;27;45229;-79
2023/01/27 04:27:19;;;;;;;;;2.00;2.00;;;;;8.70;100.00;101852.91;5098559;27;45435;-79
2023/01/27 04:29:44;;;;;;;;;1.00;1.00;;;;;8.62;100.00;101852.72;5083592;27;45181;-79
2023/01/27 04:32:11;;;;;;;;;2.00;2.00;;;;;8.63;100.00;101853.56;5102039;27;45199;-79
2023/01/27 04:34:38;;;;;;;;;3.00;2.67;;;;;8.66;100.00;101853.31;5083869;27;47675;-79
2023/01/27 04:37:05;;;;;;;;;3.00;2.00;;;;;8.65;100.00;101852.47;5102177;27;45539;-79
2023/01/27 04:39:31;;;;;;;;;1.33;1.33;;;;;8.92;100.00;101840.41;5083745;27;45319;-79
2023/01/27 04:41:57;;;;;;;;;3.00;2.00;;;;;9.04;100.00;101842.97;5102113;27;45256;-80
2023/01/27 04:44:22;;;;;;;;;2.00;2.00;;;;;9.04;100.00;101843.78;5102153;27;46499;-79
2023/01/27 04:46:48;;;;;;;;;0.67;0.67;;;;;8.92;100.00;101843.06;5101822;27;45330;-79
2023/01/27 04:49:14;;;;;;;;;2.00;2.00;;;;;8.89;100.00;101839.84;5102524;27;45206;-79
2023/01/27 04:51:40;;;;;;;;;1.00;1.00;;;;;8.93;100.00;101839.44;5101729;27;45241;-79
2023/01/27 04:54:06;;;;;;;;;1.00;1.00;;;;;8.98;100.00;101843.50;5083381;27;47118;-79
2023/01/27 04:56:40;;;;;;;;;3.33;1.33;;;;;9.00;100.00;101834.41;5101709;27;45309;-80
2023/01/27 04:59:07;;;;;;;;;2.00;1.00;;;;;8.98;100.00;101844.31;5083491;27;45351;-79
2023/01/27 05:01:33;;;;;;;;;2.00;2.00;;;;;8.95;100.00;101826.88;5101628;27;45444;-79
2023/01/27 05:03:58;;;;;;;;;4.00;3.67;;;;;9.01;100.00;101837.94;5101675;27;46166;-79
2023/01/27 05:06:25;;;;;;;;;3.33;3.00;;;;;9.15;100.00;101826.91;5101407;27;45419;-79
2023/01/27 05:08:51;;;;;;;;;9.67;4.33;;;;;9.28;100.00;101825.81;5101899;27;45300;-79
2023/01/27 05:11:16;;;;;;;;;4.00;4.00;;;;;8.98;100.00;101830.25;5083179;27;45551;-79
2023/01/27 05:13:42;;;;;;;;;5.00;3.67;;;;;8.90;100.00;101818.50;5101523;27;46785;-79
2023/01/27 05:16:16;;;;;;;;;3.00;3.00;;;;;8.82;100.00;101824.47;5083125;27;45232;-79
2023/01/27 05:18:42;;;;;;;;;2.00;2.00;;;;;8.86;100.00;101824.22;5101803;27;45335;-78
2023/01/27 05:21:11;;;;;;;;;2.00;2.00;;;;;8.82;100.00;101819.19;5099989;27;46879;-79
2023/01/27 05:23:37;;;;;;;;;2.00;2.00;;;;;8.77;100.00;101802.84;5101399;27;45506;-79
2023/01/27 05:26:05;;;;;;;;;4.00;3.50;;;;;8.89;100.00;101826.59;5101197;27;45288;-79
2023/01/27 05:28:31;;;;;;;;;5.00;4.00;;;;;8.89;100.00;101826.59;5101650;27;45312;-79
2023/01/27 05:31:03;;;;;;;;;5.33;4.00;;;;;8.81;100.00;101827.28;5082808;27;45344;-79
2023/01/27 05:33:28;;;;;;;;;6.33;4.00;;;;;8.82;100.00;101834.25;5101345;27;47328;-79
2023/01/27 05:35:57;;;;;;;;;3.00;3.00;;;;;8.88;100.00;101827.56;5101018;27;45378;-79
2023/01/27 05:38:22;;;;;;;;;9.00;5.00;;;;;8.83;100.00;101830.63;5101274;27;45232;-79
2023/01/27 05:40:48;;;;;;;;;4.67;2.67;;;;;8.89;100.00;101826.59;5099601;27;45190;-79
2023/01/27 05:43:13;;;;;;;;;3.33;3.33;;;;;8.96;100.00;101830.38;5099776;27;47085;-79
2023/01/27 05:45:38;;;;;;;;;2.67;2.33;;;;;8.93;100.00;101831.50;5082736;27;45286;-79
2023/01/27 05:48:04;;;;;;;;;3.67;3.00;;;;;8.94;100.00;101827.00;5082925;27;45302;-78
2023/01/27 05:50:29;;;;;;;;;3.00;3.00;;;;;8.90;100.00;101829.13;5099455;27;47057;-79
2023/01/27 05:52:54;;;;;;;;;5.67;4.00;;;;;8.86;100.00;101832.16;5101135;27;45285;-79
2023/01/27 05:55:20;;;;;;;;;3.00;2.00;;;;;8.85;100.00;101828.66;5100631;27;45405;-79
2023/01/27 05:57:45;;;;;;;;;5.33;3.67;;;;;8.87;100.00;101829.38;5099462;27;45322;-79
2023/01/27 06:00:11;;;;;;;;;4.33;3.67;;;;;8.82;100.00;101834.25;5100723;27;45206;-79
2023/01/27 06:02:36;;;;;;;;;3.33;3.00;;;;;8.85;100.00;101836.63;5101026;27;45395;-78
2023/01/27 06:05:01;;;;;;;;;2.00;1.67;;;;;8.90;100.00;101828.25;5082322;27;45366;-79
2023/01/27 06:07:27;;;;;;;;;3.33;3.33;;;;;8.75;100.00;101819.84;5082488;27;45613;-79
2023/01/27 06:09:52;;;;;;;;;3.67;3.33;;;;;8.81;100.00;101829.94;5082020;27;45505;-78
2023/01/27 06:12:17;;;;;;;;;2.00;2.00;;;;;8.86;100.00;101835.63;5100936;27;46033;-80
2023/01/27 06:14:42;;;;;;;;;9.00;6.33;;;;;8.79;100.00;101827.41;5099871;27;45577;-79
2023/01/27 06:17:08;;;;;;;;;3.67;3.67;;;;;8.83;100.00;101834.09;5100698;27;45267;-79
2023/01/27 06:19:33;;;;;;;;;3.00;3.00;;;;;8.82;100.00;101835.09;5101281;27;45283;-79
2023/01/27 06:21:58;;;;;;;;;3.33;2.33;;;;;8.80;100.00;101823.78;5099800;27;47157;-81
2023/01/27 06:24:24;;;;;;;;;2.00;1.00;;;;;8.84;100.00;101837.59;5099982;27;46114;-79
2023/01/27 06:26:49;;;;;;;;;1.00;1.00;;;;;8.81;100.00;101830.78;5101416;27;45240;-80
2023/01/27 06:29:14;;;;;;;;;3.00;3.00;;;;;8.75;100.00;101831.31;5100890;27;45361;-79
2023/01/27 06:31:39;;;;;;;;;3.67;3.67;;;;;8.74;100.00;101828.78;5099821;27;48342;-80
2023/01/27 06:34:05;;;;;;;;;3.67;3.00;;;;;8.81;100.00;101845.81;5082712;27;45319;-79
2023/01/27 06:36:30;;;;;;;;;4.00;4.00;;;;;8.77;100.00;101834.66;5098724;27;45595;-79
2023/01/27 06:38:56;;;;;;;;;5.00;3.00;;;;;8.78;100.00;101836.34;5089662;27;46371;-82
2023/01/27 06:41:21;;;;;;;;;2.00;2.00;;;;;8.75;100.00;101833.97;5078338;27;47953;-79
2023/01/27 06:43:46;;;;;;;;;2.00;2.00;;;;;8.76;100.00;101840.94;5080975;27;45881;-79
2023/01/27 06:46:13;;;;;;;;;4.00;3.33;;;;;8.75;100.00;101833.09;5098373;27;45429;-79
2023/01/27 06:48:39;;;;;;;;;3.00;3.00;;;;;8.77;100.00;101844.44;5100500;27;45236;-78
2023/01/27 06:51:04;;;;;;;;;2.00;2.00;;;;;8.77;100.00;101844.44;5099705;27;45284;-78
2023/01/27 06:53:31;;;;;;;;;3.33;3.00;;;;;8.74;100.00;101842.03;5100198;27;45332;-78
2023/01/27 06:55:59;;;;;;;;;5.00;3.33;;;;;8.77;100.00;101847.91;5100448;27;45332;-79
2023/01/27 06:58:24;;;;;;;;;3.00;3.00;;;;;8.76;100.00;101845.38;5081492;27;47115;-78
2023/01/27 07:00:51;;;;;;;;;3.00;3.00;;;;;8.75;100.00;101841.06;5100261;27;46390;-78
2023/01/27 07:03:16;;;;;;;;;4.00;2.67;;;;;8.79;100.00;101838.00;5100014;27;45298;-79
2023/01/27 07:05:42;;;;;;;;;4.00;3.00;;;;;8.87;100.00;101833.84;5087118;27;45480;-79
2023/01/27 07:08:07;;;;;;;;;2.00;2.00;;;;;8.91;100.00;101854.66;5099652;27;45291;-79
2023/01/27 07:10:33;;;;;;;;;5.00;3.33;;;;;8.87;100.00;101840.00;5099698;27;45543;-78
2023/01/27 07:13:10;;;;;;;;;4.00;4.00;;;;;8.87;100.00;101842.63;5099880;27;45296;-82
2023/01/27 07:15:35;;;;;;;;;1.67;1.00;;;;;8.86;100.00;101848.06;5100172;27;45272;-79
2023/01/27 07:18:01;;;;;;;;;3.33;3.33;;;;;8.86;100.00;101853.38;5100075;27;45405;-79
2023/01/27 07:20:28;;;;;;;;;4.00;4.00;;;;;8.84;100.00;101850.88;5099474;27;45437;-81
2023/01/27 07:23:01;;;;;;;;;4.00;3.33;;;;;8.83;100.00;101855.31;5099941;27;45349;-80
2023/01/27 07:25:29;;;;;;;;;4.00;4.00;;;;;8.84;100.00;101864.94;5080402;27;45640;-79
2023/01/27 07:27:58;;;;;;;;;6.33;3.67;;;;;8.82;100.00;101860.75;5081158;27;46261;-78
2023/01/27 07:30:25;;;;;;;;;5.00;5.00;;;;;8.86;100.00;101861.34;5099470;27;45338;-78
2023/01/27 07:32:50;;;;;;;;;8.00;5.00;;;;;8.84;100.00;101870.25;5099058;27;45676;-78
2023/01/27 07:35:16;;;;;;;;;4.33;3.00;;;;;8.84;100.00;101866.78;5099363;27;45279;-84
2023/01/27 07:37:42;;;;;;;;;7.00;4.00;;;;;8.84;100.00;101872.88;5100529;27;45410;-83
2023/01/27 07:40:12;;;;;;;;;7.33;5.00;;;;;8.91;100.00;101875.00;5099492;27;45322;-81
2023/01/27 07:42:37;;;;;;;;;6.00;6.00;;;;;8.94;100.00;101883.53;5099896;27;45231;-81
2023/01/27 07:45:03;;;;;;;;;4.33;4.33;;;;;8.96;100.00;101886.06;5082196;27;45198;-81
2023/01/27 07:47:28;;;;;;;;;5.00;5.00;;;;;8.92;100.00;101895.25;5100026;27;45217;-81
2023/01/27 07:49:53;;;;;;;;;5.33;4.00;;;;;8.96;100.00;101884.25;5100388;27;46013;-82
2023/01/27 07:52:19;;;;;;;;;5.67;3.00;;;;;8.95;100.00;101890.50;5100037;27;45221;-80
2023/01/27 07:54:44;;;;;;;;;5.33;4.67;;;;;8.98;100.00;101891.22;5098937;27;45217;-81
2023/01/27 07:57:09;;;;;;;;;4.67;4.33;;;;;8.99;100.00;101893.75;5099714;27;45181;-80
2023/01/27 07:59:35;;;;;;;;;6.00;5.00;;;;;9.06;100.00;101899.34;5081567;27;47088;-81
2023/01/27 08:02:00;;;;;;;;;4.67;4.67;;;;;9.03;100.00;101891.66;5099964;27;45322;-82
2023/01/27 08:04:26;;;;;;;;;4.00;4.00;;;;;9.03;100.00;101899.59;5101385;27;45352;-80
2023/01/27 08:06:51;;;;;;;;;4.00;4.00;;;;;9.01;100.00;101898.91;5094015;27;46080;-82
2023/01/27 08:09:16;;;;;;;;;6.33;6.00;;;;;9.01;100.00;101899.75;5097595;27;45330;-82
2023/01/27 08:11:42;;;;;;;;;5.00;5.00;;;;;9.04;100.00;101902.13;5104414;27;45372;-82
2023/01/27 08:14:07;;;;;;;;;5.00;5.00;;;;;9.04;100.00;101898.66;5097000;27;45451;-82
2023/01/27 08:16:32;;;;;;;;;5.33;5.00;;;;;9.07;100.00;101901.84;5101734;27;45298;-82
2023/01/27 08:18:58;;;;;;;;;5.67;5.33;;;;;9.06;100.00;101909.94;5078164;27;48516;-81
2023/01/27 08:21:24;;;;;;;;;6.00;6.00;;;;;9.07;100.00;101909.81;5099218;27;45324;-82
2023/01/27 08:23:50;;;;;;;;;4.00;4.00;;;;;9.09;100.00;101907.03;5084948;27;45332;-82
2023/01/27 08:26:15;;;;;;;;;7.67;5.67;;;;;9.06;100.00;101907.28;5102307;27;45407;-81
2023/01/27 08:28:40;;;;;;;;;7.67;6.00;;;;;9.13;100.00;101916.38;5102699;27;46796;-83
2023/01/27 08:31:09;;;;;;;;;5.00;5.00;;;;;9.16;100.00;101918.75;5103206;27;45340;-84
2023/01/27 08:33:38;;;;;;;;;9.00;9.00;;;;;9.14;100.00;101917.22;5113319;27;45242;-81
2023/01/27 08:36:10;;;;;;;;;8.33;6.67;;;;;9.13;100.00;101924.34;5376891;22;45880;-82
2023/01/27 08:38:36;;;;;;;;;7.33;7.00;;;;;9.13;100.00;101929.63;5045384;28;47501;-82
2023/01/27 08:41:07;;;;;;;;;6.67;5.00;;;;;9.16;100.00;101929.38;5042482;28;45265;-81
2023/01/27 08:43:33;;;;;;;;;5.00;5.00;;;;;9.09;100.00;101930.88;5015590;28;45291;-79
2023/01/27 08:45:59;;;;;;;;;7.33;6.67;;;;;9.12;100.00;101935.94;5022552;28;47135;-82
2023/01/27 08:48:27;;;;;;;;;6.33;6.33;;;;;9.12;100.00;101929.78;5045355;28;45230;-79
2023/01/27 08:50:52;;;;;;;;;7.00;7.00;;;;;9.13;100.00;101937.59;5024194;28;45821;-80
2023/01/27 08:53:17;;;;;;;;;10.00;7.67;;;;;9.12;100.00;101940.38;5035718;28;45453;-80
2023/01/27 08:55:44;;;;;;;;;6.00;6.00;;;;;9.13;100.00;101939.44;5047330;28;45400;-79
2023/01/27 08:58:09;;;;;;;;;7.33;7.00;;;;;9.11;100.00;101942.22;5043252;28;45708;-79
2023/01/27 09:00:34;;;;;;;;;9.00;9.00;;;;;9.10;100.00;101943.19;5025934;28;45650;-80
2023/01/27 09:03:00;;;;;;;;;8.67;8.00;;;;;9.04;100.00;101949.03;5026724;28;45357;-81
2023/01/27 09:05:25;;;;;;;;;8.00;7.67;;;;;9.06;100.00;101955.88;5025355;28;46196;-79
2023/01/27 09:07:50;;;;;;;;;7.33;6.33;;;;;9.21;100.00;101951.03;5054117;28;45570;-80
2023/01/27 09:10:16;;;;;;;;;6.67;4.67;;;;;9.07;100.00;101951.41;5042387;28;45260;-80
2023/01/27 09:12:43;;;;;;;;;9.00;8.00;;;;;9.07;100.00;101951.41;5043281;28;45645;-80
2023/01/27 09:15:09;;;;;;;;;9.67;8.67;;;;;9.06;100.00;101953.22;5044205;28;45256;-80
2023/01/27 09:17:35;;;;;;;;;5.00;5.00;;;;;9.06;100.00;101960.34;5026789;28;47371;-79
2023/01/27 09:20:00;;;;;;;;;7.00;5.67;;;;;9.05;100.00;101959.50;5026329;28;45329;-81
2023/01/27 09:22:25;;;;;;;;;4.67;4.67;;;;;9.03;100.00;101947.34;5026558;28;45428;-79
2023/01/27 09:24:51;;;;;;;;;12.67;8.00;;;;;9.11;100.00;101967.88;5056513;28;45518;-80
2023/01/27 09:27:16;;;;;;;;;8.67;8.67;;;;;9.12;100.00;101966.91;5044843;28;45432;-83
2023/01/27 09:29:41;;;;;;;;;9.33;8.33;;;;;9.15;100.00;101970.16;5024749;28;45375;-78
2023/01/27 09:32:08;;;;;;;;;9.33;9.33;;;;;9.01;100.00;101952.78;5043310;28;45473;-79
2023/01/27 09:34:33;;;;;;;;;10.00;9.00;;;;;9.04;100.00;101955.16;5042283;28;45565;-80
2023/01/27 09:37:07;;;;;;;;;6.33;5.00;;;;;9.09;100.00;101965.38;5041402;28;45294;-79
2023/01/27 09:39:37;;;;;;;;;8.33;7.00;;;;;9.18;100.00;101963.72;5040627;28;45309;-80
2023/01/27 09:42:18;;;;;;;;;7.67;6.33;;;;;9.22;100.00;101968.63;5028330;28;45422;-77
2023/01/27 09:45:05;;;;;;;;;10.00;7.67;;;;;9.18;100.00;101969.03;5022179;28;45958;-78
2023/01/27 09:47:55;;;;;;;;;11.00;9.00;;;;;9.18;100.00;101969.03;5040234;28;45344;-78
2023/01/27 09:50:34;;;;;;;;;8.33;7.67;;;;;9.14;100.00;101962.31;5021748;28;45254;-78
2023/01/27 09:53:06;;;;;;;;;9.00;7.33;;;;;9.15;100.00;101966.63;5005516;28;45358;-78
2023/01/27 09:56:09;;;;;;;;;8.00;8.00;;;;;9.16;100.00;101971.00;5039607;28;46220;-80
2023/01/27 09:59:05;;;;;;;;;7.00;7.00;;;;;9.38;100.00;101969.94;5036893;28;46588;-79
2023/01/27 10:01:53;;;;;;;;;9.33;8.33;;;;;9.47;99.44;101968.28;5021809;28;45903;-79
2023/01/27 10:04:49;;;;;;;;;8.00;8.00;;;;;9.57;99.17;101973.59;5038741;28;45490;-79
2023/01/27 10:07:29;;;;;;;;;9.00;8.67;;;;;9.56;99.00;101980.72;5052683;28;45519;-81
2023/01/27 10:09:54;;;;;;;;;10.00;7.67;;;;;9.49;97.98;101973.44;5025055;28;45459;-83
2023/01/27 10:12:58;;;;;;;;;8.67;7.00;;;;;9.31;99.63;101972.28;5018679;28;45502;-82
2023/01/27 10:15:57;;;;;;;;;7.00;7.00;;;;;9.26;99.47;101971.00;5007903;28;45321;-82
2023/01/27 10:18:55;;;;;;;;;7.33;5.33;;;;;9.20;99.24;101970.59;5047600;28;45475;-82
2023/01/27 10:21:37;;;;;;;;;5.00;5.00;;;;;9.09;99.14;101971.53;5040855;28;45304;-82
2023/01/27 10:24:13;;;;;;;;;9.00;9.00;;;;;9.04;99.77;101972.91;5008958;28;45291;-82
2023/01/27 10:26:45;;;;;;;;;9.00;9.00;;;;;9.15;100.00;101983.41;5040270;28;45241;-80
2023/01/27 10:29:24;;;;;;;;;10.67;9.67;;;;;9.20;100.00;101983.84;5024605;28;45504;-82
2023/01/27 10:32:17;;;;;;;;;16.00;10.00;;;;;9.29;100.00;101989.31;5041432;28;45322;-83
2023/01/27 10:35:11;;;;;;;;;10.33;8.00;;;;;9.30;100.00;101990.97;5023025;28;45413;-80
2023/01/27 10:37:46;;;;;;;;;11.00;9.00;;;;;9.28;100.00;101979.69;5027286;28;45390;-79
2023/01/27 10:40:44;;;;;;;;;10.67;8.67;;;;;9.32;100.00;101989.03;5038473;28;45346;-80
2023/01/27 10:43:15;;;;;;;;;10.67;10.00;;;;;9.32;100.00;101989.91;5019606;28;47108;-83
2023/01/27 10:46:07;;;;;;;;;13.33;11.67;;;;;9.29;100.00;101984.84;5018893;28;45787;-84
2023/01/27 10:48:42;;;;;;;;;11.00;9.33;;;;;9.25;100.00;101972.00;5040074;28;45348;-83
2023/01/27 10:51:12;;;;;;;;;9.67;9.33;;;;;9.63;99.76;101983.66;5038468;28;45458;-82
2023/01/27 10:54:00;;;;;;;;;17.33;17.33;;;;;9.69;99.29;101983.13;5044812;28;45265;-85
2023/01/27 10:56:28;;;;;;;;;19.00;16.33;;;;;9.69;98.83;101979.63;5022060;28;46034;-81
2023/01/27 10:59:01;;;;;;;;;16.67;15.33;;;;;9.45;99.21;101983.47;5040514;28;45461;-81
2023/01/27 11:01:34;;;;;;;;;12.33;12.33;;;;;9.41;100.00;101974.97;5038938;28;45380;-82
2023/01/27 11:04:26;;;;;;;;;21.00;14.00;;;;;9.42;100.00;101976.63;5036973;28;45484;-83
2023/01/27 11:06:53;;;;;;;;;15.00;15.00;;;;;9.44;100.00;101979.16;5035746;28;45529;-81
2023/01/27 11:09:32;;;;;;;;;16.67;15.33;;;;;9.45;100.00;101978.19;5018905;28;45411;-80
2023/01/27 11:12:11;;;;;;;;;14.33;11.67;;;;;9.42;100.00;101975.78;5020280;28;47390;-80
2023/01/27 11:14:49;;;;;;;;;12.00;12.00;;;;;9.39;99.87;101981.38;5022053;28;47346;-79
2023/01/27 11:17:26;;;;;;;;;9.33;9.33;;;;;9.42;100.00;101984.59;5037474;28;45633;-82
2023/01/27 11:20:22;;;;;;;;;13.33;12.33;;;;;9.63;99.97;101977.50;5027909;28;45336;-80
2023/01/27 11:23:16;;;;;;;;;11.00;11.00;;;;;9.63;97.98;101973.03;5012402;28;45507;-79
2023/01/27 11:26:04;;;;;;;;;14.33;11.33;;;;;9.31;99.03;101964.31;5008056;28;47715;-82
2023/01/27 11:28:43;;;;;;;;;16.33;11.00;;;;;9.55;99.14;101965.75;5020890;28;45444;-83
2023/01/27 11:31:28;;;;;;;;;8.67;8.67;;;;;9.39;99.54;101965.44;5043151;28;45143;-82
2023/01/27 11:34:06;;;;;;;;;10.33;9.67;;;;;9.64;100.00;101958.78;5048087;28;45296;-81
2023/01/27 11:36:33;;;;;;;;;14.67;13.00;;;;;9.72;99.93;101950.97;5025212;28;48637;-81
2023/01/27 11:39:00;;;;;;;;;13.00;11.00;;;;;9.75;99.05;101957.00;5042761;28;45311;-82
2023/01/27 11:41:26;;;;;;;;;12.00;11.33;;;;;9.72;99.77;101952.78;5042358;28;45292;-84
2023/01/27 11:43:51;;;;;;;;;12.67;12.33;;;;;9.80;99.18;101944.13;5042386;28;45491;-85
2023/01/27 11:46:21;;;;;;;;;13.33;12.00;;;;;9.69;98.46;101945.09;5029543;28;46574;-81
2023/01/27 11:48:51;;;;;;;;;14.33;14.33;;;;;9.66;99.23;101950.69;5044344;28;45451;-83
2023/01/27 11:52:04;;;;;;;;;13.00;12.00;;;;;9.65;98.51;101936.59;5044992;28;45344;-82
2023/01/27 11:54:41;;;;;;;;;16.33;13.33;;;;;9.61;98.93;101921.94;5057936;28;45364;-82
2023/01/27 11:57:17;;;;;;;;;17.33;17.00;;;;;9.61;98.85;101943.16;5039520;28;45314;-81
2023/01/27 11:59:44;;;;;;;;;19.00;15.67;;;;;9.58;98.88;101932.81;5012767;28;45417;-79
2023/01/27 12:02:22;;;;;;;;;13.00;13.00;;;;;9.59;98.89;101939.78;5053861;28;45471;-81
2023/01/27 12:05:06;;;;;;;;;20.33;18.33;;;;;9.50;98.75;101920.22;5025627;28;47228;-81
2023/01/27 12:07:51;;;;;;;;;17.33;16.33;;;;;9.51;98.19;101936.97;5024824;28;48788;-85
2023/01/27 12:10:30;;;;;;;;;18.67;17.00;;;;;9.56;99.09;101943.56;5039184;28;45461;-81